sensor_id;sensor_type;location;lat;lon;timestamp;P1;durP1;ratioP1;P2;durP2;ratioP2
44925;SDS011;30662;51.210;7.656;2024-03-17T00:01:17;7.60;;;5.40;;
44925;SDS011;30662;51.210;7.656;2024-03-17T00:03:44;8.60;;;5.63;;
44925;SDS011;30662;51.210;7.656;2024-03-17T00:06:10;7.88;;;5.53;;
44925;SDS011;30662;51.210;7.656;2024-03-17T00:08:36;10.40;;;6.32;;
44925;SDS011;30662;51.210;7.656;2024-03-17T00:11:01;8.43;;;5.88;;
44925;SDS011;30662;51.210;7.656;2024-03-17T00:13:27;10.75;;;6.15;;
44925;SDS011;30662;51.210;7.656;2024-03-17T00:15:53;7.85;;;5.95;;
44925;SDS011;30662;51.210;7.656;2024-03-17T00:18:19;6.90;;;5.18;;
44925;SDS011;30662;51.210;7.656;2024-03-17T00:20:46;9.63;;;6.13;;
44925;SDS011;30662;51.210;7.656;2024-03-17T00:23:12;11.02;;;6.55;;
44925;SDS011;30662;51.210;7.656;2024-03-17T00:25:37;9.30;;;6.07;;
44925;SDS011;30662;51.210;7.656;2024-03-17T00:28:04;9.90;;;6.07;;
44925;SDS011;30662;51.210;7.656;2024-03-17T00:30:30;6.68;;;5.57;;
44925;SDS011;30662;51.210;7.656;2024-03-17T00:32:56;8.25;;;6.45;;
44925;SDS011;30662;51.210;7.656;2024-03-17T00:35:22;10.73;;;7.72;;
44925;SDS011;30662;51.210;7.656;2024-03-17T00:37:49;9.40;;;6.00;;
44925;SDS011;30662;51.210;7.656;2024-03-17T00:40:15;8.45;;;6.30;;
44925;SDS011;30662;51.210;7.656;2024-03-17T00:42:43;9.48;;;6.70;;
44925;SDS011;30662;51.210;7.656;2024-03-17T00:45:10;10.60;;;6.90;;
44925;SDS011;30662;51.210;7.656;2024-03-17T00:47:36;10.88;;;6.75;;
44925;SDS011;30662;51.210;7.656;2024-03-17T00:50:02;10.25;;;6.55;;
44925;SDS011;30662;51.210;7.656;2024-03-17T00:52:28;11.35;;;7.47;;
44925;SDS011;30662;51.210;7.656;2024-03-17T00:54:55;10.68;;;7.53;;
44925;SDS011;30662;51.210;7.656;2024-03-17T00:57:21;10.55;;;6.95;;
44925;SDS011;30662;51.210;7.656;2024-03-17T00:59:47;11.63;;;7.07;;
44925;SDS011;30662;51.210;7.656;2024-03-17T01:02:13;11.20;;;5.65;;
44925;SDS011;30662;51.210;7.656;2024-03-17T01:04:40;12.82;;;6.40;;
44925;SDS011;30662;51.210;7.656;2024-03-17T01:07:06;10.20;;;6.03;;
44925;SDS011;30662;51.210;7.656;2024-03-17T01:09:31;10.93;;;6.00;;
44925;SDS011;30662;51.210;7.656;2024-03-17T01:11:59;9.18;;;6.43;;
44925;SDS011;30662;51.210;7.656;2024-03-17T01:14:24;8.48;;;5.97;;
44925;SDS011;30662;51.210;7.656;2024-03-17T01:16:50;7.95;;;5.22;;
44925;SDS011;30662;51.210;7.656;2024-03-17T01:19:16;8.68;;;5.53;;
44925;SDS011;30662;51.210;7.656;2024-03-17T01:21:42;9.30;;;5.75;;
44925;SDS011;30662;51.210;7.656;2024-03-17T01:24:08;13.30;;;5.20;;
44925;SDS011;30662;51.210;7.656;2024-03-17T01:26:33;10.70;;;5.47;;
44925;SDS011;30662;51.210;7.656;2024-03-17T01:29:00;9.27;;;5.90;;
44925;SDS011;30662;51.210;7.656;2024-03-17T01:31:26;9.20;;;5.05;;
44925;SDS011;30662;51.210;7.656;2024-03-17T01:33:52;6.70;;;4.90;;
44925;SDS011;30662;51.210;7.656;2024-03-17T01:36:18;6.95;;;4.70;;
44925;SDS011;30662;51.210;7.656;2024-03-17T01:38:44;10.38;;;4.75;;
44925;SDS011;30662;51.210;7.656;2024-03-17T01:41:10;6.68;;;5.25;;
44925;SDS011;30662;51.210;7.656;2024-03-17T01:43:35;10.85;;;5.25;;
44925;SDS011;30662;51.210;7.656;2024-03-17T01:46:03;8.57;;;5.40;;
44925;SDS011;30662;51.210;7.656;2024-03-17T01:48:29;5.97;;;3.83;;
44925;SDS011;30662;51.210;7.656;2024-03-17T01:50:55;9.68;;;5.40;;
44925;SDS011;30662;51.210;7.656;2024-03-17T01:53:22;8.50;;;4.22;;
44925;SDS011;30662;51.210;7.656;2024-03-17T01:55:49;8.27;;;4.63;;
44925;SDS011;30662;51.210;7.656;2024-03-17T01:58:15;7.50;;;5.05;;
44925;SDS011;30662;51.210;7.656;2024-03-17T02:00:45;8.15;;;5.10;;
44925;SDS011;30662;51.210;7.656;2024-03-17T02:03:12;8.38;;;4.40;;
44925;SDS011;30662;51.210;7.656;2024-03-17T02:05:38;6.65;;;4.38;;
44925;SDS011;30662;51.210;7.656;2024-03-17T02:08:04;7.53;;;4.47;;
44925;SDS011;30662;51.210;7.656;2024-03-17T02:10:30;8.77;;;4.22;;
44925;SDS011;30662;51.210;7.656;2024-03-17T02:12:56;10.10;;;4.97;;
44925;SDS011;30662;51.210;7.656;2024-03-17T02:15:21;7.53;;;4.07;;
44925;SDS011;30662;51.210;7.656;2024-03-17T02:17:47;7.95;;;4.43;;
44925;SDS011;30662;51.210;7.656;2024-03-17T02:20:14;6.22;;;4.13;;
44925;SDS011;30662;51.210;7.656;2024-03-17T02:22:41;12.77;;;4.80;;
44925;SDS011;30662;51.210;7.656;2024-03-17T02:25:15;12.15;;;5.22;;
44925;SDS011;30662;51.210;7.656;2024-03-17T02:27:41;8.13;;;4.30;;
44925;SDS011;30662;51.210;7.656;2024-03-17T02:30:07;8.73;;;4.15;;
44925;SDS011;30662;51.210;7.656;2024-03-17T02:32:33;13.68;;;4.65;;
44925;SDS011;30662;51.210;7.656;2024-03-17T02:34:59;8.82;;;4.38;;
44925;SDS011;30662;51.210;7.656;2024-03-17T02:37:25;6.18;;;4.35;;
44925;SDS011;30662;51.210;7.656;2024-03-17T02:39:52;5.50;;;4.65;;
44925;SDS011;30662;51.210;7.656;2024-03-17T02:42:18;8.05;;;4.72;;
44925;SDS011;30662;51.210;7.656;2024-03-17T02:44:43;8.25;;;4.68;;
44925;SDS011;30662;51.210;7.656;2024-03-17T02:47:09;7.60;;;4.25;;
44925;SDS011;30662;51.210;7.656;2024-03-17T02:49:36;10.85;;;5.07;;
44925;SDS011;30662;51.210;7.656;2024-03-17T02:52:02;6.68;;;4.93;;
44925;SDS011;30662;51.210;7.656;2024-03-17T02:54:28;7.38;;;4.38;;
44925;SDS011;30662;51.210;7.656;2024-03-17T02:56:55;8.23;;;4.20;;
44925;SDS011;30662;51.210;7.656;2024-03-17T02:59:21;10.20;;;5.20;;
44925;SDS011;30662;51.210;7.656;2024-03-17T03:01:47;7.50;;;4.95;;
44925;SDS011;30662;51.210;7.656;2024-03-17T03:04:22;9.85;;;5.07;;
44925;SDS011;30662;51.210;7.656;2024-03-17T03:06:56;10.73;;;5.80;;
44925;SDS011;30662;51.210;7.656;2024-03-17T03:09:28;11.55;;;6.05;;
44925;SDS011;30662;51.210;7.656;2024-03-17T03:11:57;10.13;;;6.03;;
44925;SDS011;30662;51.210;7.656;2024-03-17T03:14:27;10.05;;;5.90;;
44925;SDS011;30662;51.210;7.656;2024-03-17T03:17:03;8.75;;;6.55;;
44925;SDS011;30662;51.210;7.656;2024-03-17T03:19:35;10.82;;;5.75;;
44925;SDS011;30662;51.210;7.656;2024-03-17T03:22:06;11.02;;;6.35;;
44925;SDS011;30662;51.210;7.656;2024-03-17T03:24:32;9.25;;;7.07;;
44925;SDS011;30662;51.210;7.656;2024-03-17T03:26:59;10.95;;;6.65;;
44925;SDS011;30662;51.210;7.656;2024-03-17T03:29:25;13.38;;;7.53;;
44925;SDS011;30662;51.210;7.656;2024-03-17T03:31:50;10.98;;;7.30;;
44925;SDS011;30662;51.210;7.656;2024-03-17T03:34:16;11.23;;;7.90;;
44925;SDS011;30662;51.210;7.656;2024-03-17T03:36:42;13.15;;;8.65;;
44925;SDS011;30662;51.210;7.656;2024-03-17T03:39:08;14.48;;;8.15;;
44925;SDS011;30662;51.210;7.656;2024-03-17T03:41:33;15.63;;;9.20;;
44925;SDS011;30662;51.210;7.656;2024-03-17T03:44:01;15.90;;;10.18;;
44925;SDS011;30662;51.210;7.656;2024-03-17T03:46:26;15.98;;;9.57;;
44925;SDS011;30662;51.210;7.656;2024-03-17T03:48:52;21.33;;;10.27;;
44925;SDS011;30662;51.210;7.656;2024-03-17T03:51:18;18.48;;;10.32;;
44925;SDS011;30662;51.210;7.656;2024-03-17T03:53:44;15.95;;;10.07;;
44925;SDS011;30662;51.210;7.656;2024-03-17T03:56:09;18.30;;;11.27;;
44925;SDS011;30662;51.210;7.656;2024-03-17T03:58:35;16.55;;;11.40;;
44925;SDS011;30662;51.210;7.656;2024-03-17T04:01:04;17.27;;;10.38;;
44925;SDS011;30662;51.210;7.656;2024-03-17T04:03:30;18.50;;;10.57;;
44925;SDS011;30662;51.210;7.656;2024-03-17T04:06:00;20.75;;;12.15;;
44925;SDS011;30662;51.210;7.656;2024-03-17T04:08:27;19.02;;;11.25;;
44925;SDS011;30662;51.210;7.656;2024-03-17T04:10:53;20.02;;;12.32;;
44925;SDS011;30662;51.210;7.656;2024-03-17T04:13:18;17.58;;;11.93;;
44925;SDS011;30662;51.210;7.656;2024-03-17T04:15:44;22.08;;;12.38;;
44925;SDS011;30662;51.210;7.656;2024-03-17T04:18:11;19.95;;;12.00;;
44925;SDS011;30662;51.210;7.656;2024-03-17T04:20:37;24.67;;;12.18;;
44925;SDS011;30662;51.210;7.656;2024-03-17T04:23:03;24.50;;;13.88;;
44925;SDS011;30662;51.210;7.656;2024-03-17T04:25:29;26.10;;;13.40;;
44925;SDS011;30662;51.210;7.656;2024-03-17T04:27:54;19.98;;;13.40;;
44925;SDS011;30662;51.210;7.656;2024-03-17T04:30:20;23.20;;;13.20;;
44925;SDS011;30662;51.210;7.656;2024-03-17T04:32:46;18.27;;;12.60;;
44925;SDS011;30662;51.210;7.656;2024-03-17T04:35:13;17.20;;;11.95;;
44925;SDS011;30662;51.210;7.656;2024-03-17T04:37:39;23.23;;;13.07;;
44925;SDS011;30662;51.210;7.656;2024-03-17T04:40:05;16.35;;;11.77;;
44925;SDS011;30662;51.210;7.656;2024-03-17T04:42:34;15.63;;;12.13;;
44925;SDS011;30662;51.210;7.656;2024-03-17T04:45:00;20.63;;;12.55;;
44925;SDS011;30662;51.210;7.656;2024-03-17T04:47:26;19.33;;;12.27;;
44925;SDS011;30662;51.210;7.656;2024-03-17T04:49:52;17.90;;;12.27;;
44925;SDS011;30662;51.210;7.656;2024-03-17T04:52:19;18.98;;;12.38;;
44925;SDS011;30662;51.210;7.656;2024-03-17T04:54:44;19.23;;;13.10;;
44925;SDS011;30662;51.210;7.656;2024-03-17T04:57:10;19.13;;;12.20;;
44925;SDS011;30662;51.210;7.656;2024-03-17T04:59:36;17.30;;;12.50;;
44925;SDS011;30662;51.210;7.656;2024-03-17T05:02:01;17.58;;;12.63;;
44925;SDS011;30662;51.210;7.656;2024-03-17T05:04:27;21.55;;;13.15;;
44925;SDS011;30662;51.210;7.656;2024-03-17T05:06:53;16.48;;;12.60;;
44925;SDS011;30662;51.210;7.656;2024-03-17T05:09:20;20.02;;;12.20;;
44925;SDS011;30662;51.210;7.656;2024-03-17T05:11:46;23.60;;;12.90;;
44925;SDS011;30662;51.210;7.656;2024-03-17T05:14:11;17.67;;;11.60;;
44925;SDS011;30662;51.210;7.656;2024-03-17T05:16:37;14.95;;;11.52;;
44925;SDS011;30662;51.210;7.656;2024-03-17T05:19:03;16.15;;;12.10;;
44925;SDS011;30662;51.210;7.656;2024-03-17T05:21:29;15.50;;;10.65;;
44925;SDS011;30662;51.210;7.656;2024-03-17T05:23:55;18.58;;;11.68;;
44925;SDS011;30662;51.210;7.656;2024-03-17T05:26:23;18.45;;;11.90;;
44925;SDS011;30662;51.210;7.656;2024-03-17T05:28:48;19.73;;;11.73;;
44925;SDS011;30662;51.210;7.656;2024-03-17T05:31:14;19.85;;;10.80;;
44925;SDS011;30662;51.210;7.656;2024-03-17T05:33:40;14.85;;;10.45;;
44925;SDS011;30662;51.210;7.656;2024-03-17T05:36:06;16.50;;;10.98;;
44925;SDS011;30662;51.210;7.656;2024-03-17T05:38:32;15.85;;;11.15;;
44925;SDS011;30662;51.210;7.656;2024-03-17T05:40:58;17.20;;;11.07;;
44925;SDS011;30662;51.210;7.656;2024-03-17T05:43:26;12.60;;;10.55;;
44925;SDS011;30662;51.210;7.656;2024-03-17T05:45:53;14.07;;;9.35;;
44925;SDS011;30662;51.210;7.656;2024-03-17T05:48:20;17.08;;;10.10;;
44925;SDS011;30662;51.210;7.656;2024-03-17T05:50:46;15.50;;;11.07;;
44925;SDS011;30662;51.210;7.656;2024-03-17T05:53:12;12.88;;;10.13;;
44925;SDS011;30662;51.210;7.656;2024-03-17T05:55:38;15.82;;;10.70;;
44925;SDS011;30662;51.210;7.656;2024-03-17T05:58:04;16.35;;;10.05;;
44925;SDS011;30662;51.210;7.656;2024-03-17T06:00:31;12.82;;;8.60;;
44925;SDS011;30662;51.210;7.656;2024-03-17T06:02:56;10.15;;;8.73;;
44925;SDS011;30662;51.210;7.656;2024-03-17T06:05:22;14.82;;;8.98;;
44925;SDS011;30662;51.210;7.656;2024-03-17T06:07:48;12.90;;;8.73;;
44925;SDS011;30662;51.210;7.656;2024-03-17T06:10:14;14.00;;;9.07;;
44925;SDS011;30662;51.210;7.656;2024-03-17T06:12:40;13.65;;;8.50;;
44925;SDS011;30662;51.210;7.656;2024-03-17T06:15:06;11.40;;;8.43;;
44925;SDS011;30662;51.210;7.656;2024-03-17T06:17:33;11.52;;;7.70;;
44925;SDS011;30662;51.210;7.656;2024-03-17T06:19:59;13.43;;;8.68;;
44925;SDS011;30662;51.210;7.656;2024-03-17T06:22:25;12.00;;;8.27;;
44925;SDS011;30662;51.210;7.656;2024-03-17T06:24:51;13.90;;;8.82;;
44925;SDS011;30662;51.210;7.656;2024-03-17T06:27:17;14.48;;;8.82;;
44925;SDS011;30662;51.210;7.656;2024-03-17T06:29:42;12.77;;;9.40;;
44925;SDS011;30662;51.210;7.656;2024-03-17T06:32:08;11.77;;;8.50;;
44925;SDS011;30662;51.210;7.656;2024-03-17T06:34:35;12.35;;;9.27;;
44925;SDS011;30662;51.210;7.656;2024-03-17T06:37:01;13.15;;;9.13;;
44925;SDS011;30662;51.210;7.656;2024-03-17T06:39:27;15.18;;;9.13;;
44925;SDS011;30662;51.210;7.656;2024-03-17T06:41:52;13.05;;;8.20;;
44925;SDS011;30662;51.210;7.656;2024-03-17T06:44:18;13.02;;;8.30;;
44925;SDS011;30662;51.210;7.656;2024-03-17T06:46:44;15.63;;;9.02;;
44925;SDS011;30662;51.210;7.656;2024-03-17T06:49:10;14.57;;;8.85;;
44925;SDS011;30662;51.210;7.656;2024-03-17T06:51:37;17.58;;;10.43;;
44925;SDS011;30662;51.210;7.656;2024-03-17T06:54:03;14.95;;;10.57;;
44925;SDS011;30662;51.210;7.656;2024-03-17T06:56:29;13.23;;;10.13;;
44925;SDS011;30662;51.210;7.656;2024-03-17T06:58:54;15.65;;;9.68;;
44925;SDS011;30662;51.210;7.656;2024-03-17T07:01:20;14.40;;;9.13;;
44925;SDS011;30662;51.210;7.656;2024-03-17T07:03:49;12.05;;;9.13;;
44925;SDS011;30662;51.210;7.656;2024-03-17T07:06:15;10.70;;;8.43;;
44925;SDS011;30662;51.210;7.656;2024-03-17T07:08:42;12.07;;;8.98;;
44925;SDS011;30662;51.210;7.656;2024-03-17T07:11:08;10.25;;;8.73;;
44925;SDS011;30662;51.210;7.656;2024-03-17T07:13:34;14.10;;;9.50;;
44925;SDS011;30662;51.210;7.656;2024-03-17T07:16:00;14.55;;;9.05;;
44925;SDS011;30662;51.210;7.656;2024-03-17T07:18:26;8.82;;;7.63;;
44925;SDS011;30662;51.210;7.656;2024-03-17T07:20:52;10.55;;;7.57;;
44925;SDS011;30662;51.210;7.656;2024-03-17T07:23:18;10.57;;;7.03;;
44925;SDS011;30662;51.210;7.656;2024-03-17T07:25:52;10.23;;;7.45;;
44925;SDS011;30662;51.210;7.656;2024-03-17T07:28:18;9.95;;;6.75;;
44925;SDS011;30662;51.210;7.656;2024-03-17T07:30:46;9.02;;;6.63;;
44925;SDS011;30662;51.210;7.656;2024-03-17T07:33:12;10.13;;;6.30;;
44925;SDS011;30662;51.210;7.656;2024-03-17T07:35:45;10.30;;;5.53;;
44925;SDS011;30662;51.210;7.656;2024-03-17T07:38:12;9.45;;;6.18;;
44925;SDS011;30662;51.210;7.656;2024-03-17T07:40:38;8.93;;;6.35;;
44925;SDS011;30662;51.210;7.656;2024-03-17T07:43:05;9.65;;;6.28;;
44925;SDS011;30662;51.210;7.656;2024-03-17T07:45:31;9.60;;;6.35;;
44925;SDS011;30662;51.210;7.656;2024-03-17T07:47:56;10.52;;;6.18;;
44925;SDS011;30662;51.210;7.656;2024-03-17T07:50:22;7.43;;;5.97;;
44925;SDS011;30662;51.210;7.656;2024-03-17T07:52:48;11.00;;;7.63;;
44925;SDS011;30662;51.210;7.656;2024-03-17T07:55:14;9.98;;;6.05;;
44925;SDS011;30662;51.210;7.656;2024-03-17T07:57:39;8.60;;;5.75;;
44925;SDS011;30662;51.210;7.656;2024-03-17T08:00:07;8.38;;;5.78;;
44925;SDS011;30662;51.210;7.656;2024-03-17T08:02:37;8.05;;;5.93;;
44925;SDS011;30662;51.210;7.656;2024-03-17T08:05:02;7.88;;;5.00;;
44925;SDS011;30662;51.210;7.656;2024-03-17T08:07:28;8.52;;;5.80;;
44925;SDS011;30662;51.210;7.656;2024-03-17T08:09:54;9.15;;;6.18;;
44925;SDS011;30662;51.210;7.656;2024-03-17T08:12:20;6.80;;;5.70;;
44925;SDS011;30662;51.210;7.656;2024-03-17T08:14:45;7.32;;;4.72;;
44925;SDS011;30662;51.210;7.656;2024-03-17T08:17:12;7.45;;;4.75;;
44925;SDS011;30662;51.210;7.656;2024-03-17T08:19:38;6.32;;;4.57;;
44925;SDS011;30662;51.210;7.656;2024-03-17T08:22:04;6.80;;;4.35;;
44925;SDS011;30662;51.210;7.656;2024-03-17T08:24:30;6.10;;;4.70;;
44925;SDS011;30662;51.210;7.656;2024-03-17T08:26:56;6.05;;;4.72;;
44925;SDS011;30662;51.210;7.656;2024-03-17T08:29:21;8.18;;;4.50;;
44925;SDS011;30662;51.210;7.656;2024-03-17T08:31:47;6.88;;;4.88;;
44925;SDS011;30662;51.210;7.656;2024-03-17T08:34:14;10.43;;;6.00;;
44925;SDS011;30662;51.210;7.656;2024-03-17T08:36:40;9.55;;;6.13;;
44925;SDS011;30662;51.210;7.656;2024-03-17T08:39:05;9.52;;;5.75;;
44925;SDS011;30662;51.210;7.656;2024-03-17T08:41:31;9.18;;;5.30;;
44925;SDS011;30662;51.210;7.656;2024-03-17T08:43:57;8.35;;;5.50;;
44925;SDS011;30662;51.210;7.656;2024-03-17T08:46:23;7.60;;;5.45;;
44925;SDS011;30662;51.210;7.656;2024-03-17T08:48:48;6.97;;;5.40;;
44925;SDS011;30662;51.210;7.656;2024-03-17T08:51:15;6.85;;;4.53;;
44925;SDS011;30662;51.210;7.656;2024-03-17T08:53:41;6.63;;;4.68;;
44925;SDS011;30662;51.210;7.656;2024-03-17T08:56:07;7.18;;;4.65;;
44925;SDS011;30662;51.210;7.656;2024-03-17T08:58:32;6.50;;;4.32;;
44925;SDS011;30662;51.210;7.656;2024-03-17T09:01:02;6.05;;;4.68;;
44925;SDS011;30662;51.210;7.656;2024-03-17T09:03:28;8.45;;;4.10;;
44925;SDS011;30662;51.210;7.656;2024-03-17T09:05:54;5.65;;;4.35;;
44925;SDS011;30662;51.210;7.656;2024-03-17T09:08:22;6.35;;;5.22;;
44925;SDS011;30662;51.210;7.656;2024-03-17T09:10:48;5.28;;;4.75;;
44925;SDS011;30662;51.210;7.656;2024-03-17T09:13:15;6.82;;;4.70;;
44925;SDS011;30662;51.210;7.656;2024-03-17T09:15:49;5.90;;;5.13;;
44925;SDS011;30662;51.210;7.656;2024-03-17T09:18:15;10.45;;;4.53;;
44925;SDS011;30662;51.210;7.656;2024-03-17T09:20:41;6.15;;;4.10;;
44925;SDS011;30662;51.210;7.656;2024-03-17T09:23:07;5.72;;;3.95;;
44925;SDS011;30662;51.210;7.656;2024-03-17T09:25:34;10.10;;;4.35;;
44925;SDS011;30662;51.210;7.656;2024-03-17T09:27:59;5.07;;;4.07;;
44925;SDS011;30662;51.210;7.656;2024-03-17T09:30:26;6.15;;;4.47;;
44925;SDS011;30662;51.210;7.656;2024-03-17T09:32:52;4.22;;;3.50;;
44925;SDS011;30662;51.210;7.656;2024-03-17T09:35:17;5.88;;;3.85;;
44925;SDS011;30662;51.210;7.656;2024-03-17T09:37:43;5.85;;;3.28;;
44925;SDS011;30662;51.210;7.656;2024-03-17T09:40:11;4.82;;;3.70;;
44925;SDS011;30662;51.210;7.656;2024-03-17T09:42:51;6.45;;;3.75;;
44925;SDS011;30662;51.210;7.656;2024-03-17T09:45:16;7.20;;;4.30;;
44925;SDS011;30662;51.210;7.656;2024-03-17T09:47:44;6.05;;;4.00;;
44925;SDS011;30662;51.210;7.656;2024-03-17T09:50:12;6.25;;;3.28;;
44925;SDS011;30662;51.210;7.656;2024-03-17T09:52:41;6.13;;;3.88;;
44925;SDS011;30662;51.210;7.656;2024-03-17T09:55:16;5.03;;;3.88;;
44925;SDS011;30662;51.210;7.656;2024-03-17T09:57:42;6.68;;;4.03;;
44925;SDS011;30662;51.210;7.656;2024-03-17T10:00:10;9.40;;;4.43;;
44925;SDS011;30662;51.210;7.656;2024-03-17T10:02:41;12.35;;;4.95;;
44925;SDS011;30662;51.210;7.656;2024-03-17T10:05:11;8.90;;;5.55;;
44925;SDS011;30662;51.210;7.656;2024-03-17T10:07:43;8.52;;;5.05;;
44925;SDS011;30662;51.210;7.656;2024-03-17T10:10:13;5.50;;;4.68;;
44925;SDS011;30662;51.210;7.656;2024-03-17T10:12:39;6.97;;;5.35;;
44925;SDS011;30662;51.210;7.656;2024-03-17T10:15:05;5.97;;;4.57;;
44925;SDS011;30662;51.210;7.656;2024-03-17T10:17:36;5.70;;;4.38;;
44925;SDS011;30662;51.210;7.656;2024-03-17T10:20:10;6.38;;;5.38;;
44925;SDS011;30662;51.210;7.656;2024-03-17T10:22:37;6.80;;;4.78;;
44925;SDS011;30662;51.210;7.656;2024-03-17T10:25:03;6.38;;;4.95;;
44925;SDS011;30662;51.210;7.656;2024-03-17T10:27:29;5.70;;;4.85;;
44925;SDS011;30662;51.210;7.656;2024-03-17T10:29:55;6.43;;;5.25;;
44925;SDS011;30662;51.210;7.656;2024-03-17T10:32:21;8.50;;;5.20;;
44925;SDS011;30662;51.210;7.656;2024-03-17T10:34:48;6.85;;;5.20;;
44925;SDS011;30662;51.210;7.656;2024-03-17T10:37:14;5.55;;;4.82;;
44925;SDS011;30662;51.210;7.656;2024-03-17T10:39:41;5.55;;;4.68;;
44925;SDS011;30662;51.210;7.656;2024-03-17T10:42:08;7.63;;;4.97;;
44925;SDS011;30662;51.210;7.656;2024-03-17T10:44:35;6.93;;;4.90;;
44925;SDS011;30662;51.210;7.656;2024-03-17T10:47:02;6.15;;;4.72;;
44925;SDS011;30662;51.210;7.656;2024-03-17T10:49:29;6.57;;;4.40;;
44925;SDS011;30662;51.210;7.656;2024-03-17T10:51:59;8.23;;;4.63;;
44925;SDS011;30662;51.210;7.656;2024-03-17T10:54:26;7.57;;;4.13;;
44925;SDS011;30662;51.210;7.656;2024-03-17T10:56:52;13.18;;;5.07;;
44925;SDS011;30662;51.210;7.656;2024-03-17T10:59:20;9.05;;;5.22;;
44925;SDS011;30662;51.210;7.656;2024-03-17T11:01:53;8.40;;;4.75;;
44925;SDS011;30662;51.210;7.656;2024-03-17T11:04:21;5.13;;;4.40;;
44925;SDS011;30662;51.210;7.656;2024-03-17T11:06:47;7.65;;;5.05;;
44925;SDS011;30662;51.210;7.656;2024-03-17T11:09:15;6.10;;;4.88;;
44925;SDS011;30662;51.210;7.656;2024-03-17T11:11:42;6.32;;;4.97;;
44925;SDS011;30662;51.210;7.656;2024-03-17T11:14:15;7.60;;;4.78;;
44925;SDS011;30662;51.210;7.656;2024-03-17T11:16:41;7.32;;;4.80;;
44925;SDS011;30662;51.210;7.656;2024-03-17T11:19:07;7.43;;;6.20;;
44925;SDS011;30662;51.210;7.656;2024-03-17T11:21:33;8.98;;;5.57;;
44925;SDS011;30662;51.210;7.656;2024-03-17T11:23:59;7.00;;;5.00;;
44925;SDS011;30662;51.210;7.656;2024-03-17T11:26:28;8.82;;;5.30;;
44925;SDS011;30662;51.210;7.656;2024-03-17T11:28:55;6.70;;;5.35;;
44925;SDS011;30662;51.210;7.656;2024-03-17T11:34:30;8.77;;;7.32;;
44925;SDS011;30662;51.210;7.656;2024-03-17T11:37:00;8.45;;;6.80;;
44925;SDS011;30662;51.210;7.656;2024-03-17T11:42:13;9.83;;;6.40;;
44925;SDS011;30662;51.210;7.656;2024-03-17T11:44:39;8.32;;;5.68;;
44925;SDS011;30662;51.210;7.656;2024-03-17T11:47:08;7.93;;;5.60;;
44925;SDS011;30662;51.210;7.656;2024-03-17T11:49:34;9.80;;;5.75;;
44925;SDS011;30662;51.210;7.656;2024-03-17T11:52:01;7.35;;;5.68;;
44925;SDS011;30662;51.210;7.656;2024-03-17T11:54:28;7.65;;;4.85;;
44925;SDS011;30662;51.210;7.656;2024-03-17T11:56:55;6.35;;;5.75;;
44925;SDS011;30662;51.210;7.656;2024-03-17T11:59:26;9.07;;;5.55;;
44925;SDS011;30662;51.210;7.656;2024-03-17T12:01:53;9.30;;;5.75;;
44925;SDS011;30662;51.210;7.656;2024-03-17T12:04:20;6.60;;;5.70;;
44925;SDS011;30662;51.210;7.656;2024-03-17T12:06:46;8.95;;;5.85;;
44925;SDS011;30662;51.210;7.656;2024-03-17T12:09:20;6.97;;;5.53;;
44925;SDS011;30662;51.210;7.656;2024-03-17T12:11:47;7.68;;;5.38;;
44925;SDS011;30662;51.210;7.656;2024-03-17T12:14:17;6.53;;;4.80;;
44925;SDS011;30662;51.210;7.656;2024-03-17T12:16:48;7.57;;;6.25;;
44925;SDS011;30662;51.210;7.656;2024-03-17T12:19:15;11.35;;;5.53;;
44925;SDS011;30662;51.210;7.656;2024-03-17T12:21:41;7.95;;;5.45;;
44925;SDS011;30662;51.210;7.656;2024-03-17T12:24:09;5.85;;;4.68;;
44925;SDS011;30662;51.210;7.656;2024-03-17T12:26:40;9.55;;;5.40;;
44925;SDS011;30662;51.210;7.656;2024-03-17T12:29:18;7.05;;;5.72;;
44925;SDS011;30662;51.210;7.656;2024-03-17T12:31:49;8.05;;;4.53;;
44925;SDS011;30662;51.210;7.656;2024-03-17T12:34:15;8.95;;;5.75;;
44925;SDS011;30662;51.210;7.656;2024-03-17T12:36:41;7.65;;;5.32;;
44925;SDS011;30662;51.210;7.656;2024-03-17T12:39:11;8.50;;;5.30;;
44925;SDS011;30662;51.210;7.656;2024-03-17T12:41:42;9.63;;;5.50;;
44925;SDS011;30662;51.210;7.656;2024-03-17T12:44:19;6.63;;;4.60;;
44925;SDS011;30662;51.210;7.656;2024-03-17T12:46:48;6.35;;;5.40;;
44925;SDS011;30662;51.210;7.656;2024-03-17T12:49:20;7.45;;;5.70;;
44925;SDS011;30662;51.210;7.656;2024-03-17T12:51:45;5.55;;;4.32;;
44925;SDS011;30662;51.210;7.656;2024-03-17T12:54:11;7.53;;;3.95;;
44925;SDS011;30662;51.210;7.656;2024-03-17T12:56:37;6.43;;;5.05;;
44925;SDS011;30662;51.210;7.656;2024-03-17T12:59:05;6.15;;;4.43;;
44925;SDS011;30662;51.210;7.656;2024-03-17T13:01:30;5.10;;;4.00;;
44925;SDS011;30662;51.210;7.656;2024-03-17T13:04:04;5.57;;;3.88;;
44925;SDS011;30662;51.210;7.656;2024-03-17T13:06:31;7.63;;;4.40;;
44925;SDS011;30662;51.210;7.656;2024-03-17T13:08:56;6.50;;;4.43;;
44925;SDS011;30662;51.210;7.656;2024-03-17T13:11:22;7.43;;;4.00;;
44925;SDS011;30662;51.210;7.656;2024-03-17T13:13:48;9.40;;;4.55;;
44925;SDS011;30662;51.210;7.656;2024-03-17T13:16:14;6.40;;;4.40;;
44925;SDS011;30662;51.210;7.656;2024-03-17T13:18:39;5.90;;;3.50;;
44925;SDS011;30662;51.210;7.656;2024-03-17T13:21:07;8.52;;;4.50;;
44925;SDS011;30662;51.210;7.656;2024-03-17T13:23:32;4.45;;;3.55;;
44925;SDS011;30662;51.210;7.656;2024-03-17T13:25:58;6.55;;;3.75;;
44925;SDS011;30662;51.210;7.656;2024-03-17T13:28:24;6.43;;;4.13;;
44925;SDS011;30662;51.210;7.656;2024-03-17T13:30:49;6.18;;;4.32;;
44925;SDS011;30662;51.210;7.656;2024-03-17T13:33:15;5.00;;;3.50;;
44925;SDS011;30662;51.210;7.656;2024-03-17T13:35:41;6.30;;;3.55;;
44925;SDS011;30662;51.210;7.656;2024-03-17T13:38:08;5.63;;;3.45;;
44925;SDS011;30662;51.210;7.656;2024-03-17T13:40:35;3.78;;;2.78;;
44925;SDS011;30662;51.210;7.656;2024-03-17T13:43:01;6.60;;;3.40;;
44925;SDS011;30662;51.210;7.656;2024-03-17T13:45:28;5.60;;;3.35;;
44925;SDS011;30662;51.210;7.656;2024-03-17T13:47:56;4.43;;;2.67;;
44925;SDS011;30662;51.210;7.656;2024-03-17T13:50:23;3.75;;;2.92;;
44925;SDS011;30662;51.210;7.656;2024-03-17T13:52:50;5.00;;;3.03;;
44925;SDS011;30662;51.210;7.656;2024-03-17T13:55:18;3.28;;;2.53;;
44925;SDS011;30662;51.210;7.656;2024-03-17T13:57:45;2.60;;;2.40;;
44925;SDS011;30662;51.210;7.656;2024-03-17T14:00:12;4.72;;;2.70;;
44925;SDS011;30662;51.210;7.656;2024-03-17T14:02:38;5.78;;;3.15;;
44925;SDS011;30662;51.210;7.656;2024-03-17T14:05:04;8.77;;;3.10;;
44925;SDS011;30662;51.210;7.656;2024-03-17T14:07:30;8.23;;;2.75;;
44925;SDS011;30662;51.210;7.656;2024-03-17T14:09:56;4.32;;;2.70;;
44925;SDS011;30662;51.210;7.656;2024-03-17T14:12:23;7.13;;;2.60;;
44925;SDS011;30662;51.210;7.656;2024-03-17T14:14:49;3.85;;;2.92;;
44925;SDS011;30662;51.210;7.656;2024-03-17T14:17:15;7.88;;;2.92;;
44925;SDS011;30662;51.210;7.656;2024-03-17T14:19:40;4.90;;;2.63;;
44925;SDS011;30662;51.210;7.656;2024-03-17T14:22:06;4.82;;;3.13;;
44925;SDS011;30662;51.210;7.656;2024-03-17T14:24:32;5.25;;;2.80;;
44925;SDS011;30662;51.210;7.656;2024-03-17T14:26:58;3.10;;;2.38;;
44925;SDS011;30662;51.210;7.656;2024-03-17T14:29:25;4.43;;;2.58;;
44925;SDS011;30662;51.210;7.656;2024-03-17T14:31:50;5.10;;;3.10;;
44925;SDS011;30662;51.210;7.656;2024-03-17T14:34:16;3.83;;;2.42;;
44925;SDS011;30662;51.210;7.656;2024-03-17T14:36:42;3.40;;;2.40;;
44925;SDS011;30662;51.210;7.656;2024-03-17T14:39:08;5.07;;;2.28;;
44925;SDS011;30662;51.210;7.656;2024-03-17T14:41:33;4.20;;;2.50;;
44925;SDS011;30662;51.210;7.656;2024-03-17T14:43:59;5.68;;;3.03;;